Time;durP1;ratioP1;P1;durP2;ratioP2;P2;SDS_P1;SDS_P2;PMS_P1;PMS_P2;Temp;Humidity;BMP_temperature;BMP_pressure;BME280_temperature;BME280_humidity;BME280_pressure;Samples;Min_cycle;Max_cycle;Signal;HPM_P1;HPM_P2
2020/12/09 00:00:06;;;;;;;39.08;15.95;;;;;;;2.04;100.00;97594.63;5070190;28;20020;-84
2020/12/09 00:02:31;;;;;;;43.17;17.40;;;;;;;2.08;100.00;97585.72;5069851;28;20017;-84
2020/12/09 00:04:57;;;;;;;38.13;16.73;;;;;;;1.95;100.00;97585.19;5075934;28;20507;-85
2020/12/09 00:07:22;;;;;;;44.55;17.63;;;;;;;1.88;100.00;97598.56;5047053;28;20036;-86
2020/12/09 00:09:48;;;;;;;45.40;19.92;;;;;;;2.02;100.00;97613.16;5046872;28;20060;-85
2020/12/09 00:12:15;;;;;;;51.30;18.27;;;;;;;1.99;100.00;97612.34;5048203;28;20025;-84
2020/12/09 00:14:41;;;;;;;48.90;19.77;;;;;;;1.88;100.00;97607.34;5066151;28;20090;-85
2020/12/09 00:17:07;;;;;;;40.47;17.50;;;;;;;1.99;100.00;97610.59;5086747;28;20016;-85
2020/12/09 00:19:33;;;;;;;37.85;16.05;;;;;;;2.07;100.00;97616.50;5056898;28;20071;-85
2020/12/09 00:21:58;;;;;;;40.08;14.77;;;;;;;2.07;100.00;97602.44;5065397;28;20031;-84
2020/12/09 00:24:24;;;;;;;37.88;15.38;;;;;;;2.15;100.00;97608.41;5067004;28;20029;-84
2020/12/09 00:26:50;;;;;;;40.47;16.40;;;;;;;2.08;100.00;97609.47;5068979;28;20510;-84
2020/12/09 00:29:15;;;;;;;41.72;16.60;;;;;;;2.09;100.00;97611.22;5089347;28;20044;-84
2020/12/09 00:31:41;;;;;;;39.30;16.10;;;;;;;2.02;100.00;97599.09;5089708;28;20102;-84
2020/12/09 00:34:07;;;;;;;40.45;15.80;;;;;;;2.04;100.00;97605.16;5089219;28;20499;-85
2020/12/09 00:36:32;;;;;;;35.13;15.13;;;;;;;2.14;100.00;97594.34;5079704;28;20032;-84
2020/12/09 00:38:58;;;;;;;31.23;12.82;;;;;;;2.17;100.00;97594.25;5082286;28;20061;-82
2020/12/09 00:41:26;;;;;;;34.80;14.27;;;;;;;2.06;100.00;97596.31;5110298;28;20015;-83
2020/12/09 00:43:53;;;;;;;35.90;13.90;;;;;;;2.10;100.00;97590.03;5081893;28;20038;-83
2020/12/09 00:46:20;;;;;;;34.70;13.50;;;;;;;2.17;100.00;97602.16;5100417;28;20032;-84
2020/12/09 00:48:46;;;;;;;55.90;18.52;;;;;;;2.15;100.00;97597.84;5072871;28;20024;-84
2020/12/09 00:51:16;;;;;;;42.47;16.65;;;;;;;2.15;100.00;97588.13;5069284;28;20024;-83
2020/12/09 00:53:41;;;;;;;44.20;15.35;;;;;;;2.12;100.00;97584.75;5101641;28;20024;-84
2020/12/09 00:56:08;;;;;;;35.30;13.77;;;;;;;2.20;100.00;97590.66;5084847;28;20439;-84
2020/12/09 00:58:34;;;;;;;40.03;15.38;;;;;;;2.31;100.00;97583.28;5087291;28;20083;-84
2020/12/09 01:01:01;;;;;;;43.38;17.38;;;;;;;2.24;100.00;97581.75;5086727;28;20028;-82
2020/12/09 01:03:26;;;;;;;47.17;17.48;;;;;;;2.24;100.00;97576.47;5075451;28;20118;-84
2020/12/09 01:05:52;;;;;;;38.53;14.43;;;;;;;2.30;100.00;97584.22;5093900;28;20040;-86
2020/12/09 01:08:17;;;;;;;44.95;13.70;;;;;;;2.27;100.00;97576.38;5067750;28;20507;-84
2020/12/09 01:10:43;;;;;;;42.50;16.02;;;;;;;2.10;100.00;97576.00;5098536;28;20058;-84
2020/12/09 01:13:09;;;;;;;47.20;14.02;;;;;;;2.08;100.00;97580.44;5087359;28;20030;-84
2020/12/09 01:15:34;;;;;;;38.88;14.02;;;;;;;2.12;100.00;97582.09;5102851;28;20024;-85
2020/12/09 01:18:00;;;;;;;36.75;13.45;;;;;;;1.95;100.00;97572.00;5084761;28;20031;-84
2020/12/09 01:20:26;;;;;;;45.80;14.32;;;;;;;1.88;100.00;97577.47;5084974;28;20020;-84
2020/12/09 01:22:52;;;;;;;40.72;14.07;;;;;;;1.78;100.00;97562.84;5079155;28;20109;-86
2020/12/09 01:25:18;;;;;;;37.38;12.57;;;;;;;1.95;100.00;97576.41;5072409;28;20020;-86
2020/12/09 01:27:44;;;;;;;37.85;13.68;;;;;;;2.01;100.00;97568.34;5064887;28;20052;-85
2020/12/09 01:30:10;;;;;;;39.50;14.10;;;;;;;1.91;100.00;97558.94;5083750;28;20591;-84
2020/12/09 01:32:35;;;;;;;44.53;13.13;;;;;;;1.89;100.00;97555.50;5084158;28;20071;-85
2020/12/09 01:35:01;;;;;;;34.22;12.82;;;;;;;1.98;100.00;97563.16;5077518;28;20411;-85
2020/12/09 01:37:27;;;;;;;37.25;12.02;;;;;;;1.98;100.00;97537.66;5068707;28;20570;-86
2020/12/09 01:39:52;;;;;;;47.03;15.77;;;;;;;2.00;100.00;97551.63;5088722;28;20028;-85
2020/12/09 01:42:18;;;;;;;39.85;12.85;;;;;;;2.04;100.00;97562.97;5080365;28;20537;-85
2020/12/09 01:44:43;;;;;;;29.20;11.55;;;;;;;1.95;100.00;97561.47;5080359;28;20058;-86
2020/12/09 01:47:09;;;;;;;34.25;13.48;;;;;;;1.88;100.00;97556.38;5049145;28;20032;-85
2020/12/09 01:49:35;;;;;;;41.80;14.75;;;;;;;1.93;100.00;97560.66;5075184;28;20032;-86
2020/12/09 01:52:03;;;;;;;36.80;13.02;;;;;;;2.00;100.00;97551.63;5064048;28;20040;-86
2020/12/09 01:54:29;;;;;;;29.90;12.18;;;;;;;1.99;100.00;97533.25;5081838;28;20039;-87
2020/12/09 01:57:06;;;;;;;39.17;12.30;;;;;;;2.00;100.00;97534.97;5081519;28;20032;-85
2020/12/09 01:59:33;;;;;;;35.78;11.95;;;;;;;2.03;100.00;97530.44;5075936;28;20071;-85
2020/12/09 02:01:59;;;;;;;45.88;12.65;;;;;;;2.05;100.00;97533.94;5067528;28;20025;-85
2020/12/09 02:04:25;;;;;;;42.95;14.27;;;;;;;1.98;100.00;97537.66;5094560;28;20507;-85
2020/12/09 02:06:52;;;;;;;50.38;14.77;;;;;;;1.89;100.00;97531.75;5078572;28;20036;-85
2020/12/09 02:09:19;;;;;;;59.13;16.17;;;;;;;1.86;100.00;97537.97;5080381;28;20428;-85
2020/12/09 02:11:45;;;;;;;35.75;12.93;;;;;;;1.84;100.00;97528.41;5079504;28;20029;-85
2020/12/09 02:14:11;;;;;;;56.78;18.52;;;;;;;1.98;100.00;97534.13;5095762;28;20039;-85
2020/12/09 02:16:36;;;;;;;36.45;12.93;;;;;;;2.05;100.00;97530.41;5049105;28;20449;-86
2020/12/09 02:19:02;;;;;;;41.20;14.18;;;;;;;2.01;100.00;97542.81;5079127;28;20024;-85
2020/12/09 02:21:32;;;;;;;37.10;14.13;;;;;;;2.00;100.00;97550.81;5069054;28;20028;-86
2020/12/09 02:23:58;;;;;;;45.63;15.30;;;;;;;1.93;100.00;97543.97;5085806;28;20032;-85
2020/12/09 02:26:23;;;;;;;39.60;14.27;;;;;;;1.99;100.00;97542.03;5088391;28;20054;-85
2020/12/09 02:28:49;;;;;;;37.50;14.63;;;;;;;1.99;100.00;97534.09;5083346;28;20032;-86
2020/12/09 02:31:15;;;;;;;34.92;12.77;;;;;;;2.01;100.00;97537.56;5076383;28;20070;-84
2020/12/09 02:33:40;;;;;;;44.92;13.57;;;;;;;1.99;100.00;97536.75;5096245;28;20047;-85
2020/12/09 02:36:06;;;;;;;44.28;13.45;;;;;;;2.01;100.00;97529.63;5079318;28;20452;-86
2020/12/09 02:38:33;;;;;;;42.55;12.70;;;;;;;2.12;100.00;97545.19;5085028;28;20032;-86
2020/12/09 02:40:59;;;;;;;34.92;13.27;;;;;;;2.07;100.00;97552.34;5072134;28;20094;-85
2020/12/09 02:43:24;;;;;;;44.88;14.30;;;;;;;2.01;100.00;97557.78;5075805;28;20027;-83
2020/12/09 02:45:50;;;;;;;59.17;15.52;;;;;;;1.87;100.00;97549.41;5105616;28;20024;-84
2020/12/09 02:48:16;;;;;;;48.75;14.15;;;;;;;1.94;100.00;97550.97;5088040;28;20144;-85
2020/12/09 02:50:41;;;;;;;65.53;18.42;;;;;;;1.87;100.00;97555.53;5082624;28;20035;-84
2020/12/09 02:53:07;;;;;;;41.63;13.85;;;;;;;1.83;100.00;97558.28;5091888;28;20032;-85
2020/12/09 02:55:32;;;;;;;41.05;14.32;;;;;;;1.77;100.00;97558.47;5067498;28;20074;-85
2020/12/09 02:58:00;;;;;;;41.03;14.50;;;;;;;1.89;100.00;97556.38;5075871;28;20408;-85
2020/12/09 03:00:26;;;;;;;67.85;19.65;;;;;;;1.86;100.00;97545.03;5085570;28;20563;-83
2020/12/09 03:02:51;;;;;;;39.75;12.23;;;;;;;1.74;100.00;97537.47;5093704;28;20048;-84
2020/12/09 03:05:17;;;;;;;56.88;14.32;;;;;;;1.87;100.00;97549.41;5084990;28;20075;-84
2020/12/09 03:07:43;;;;;;;46.97;14.35;;;;;;;1.87;100.00;97555.53;5085560;28;20039;-85
2020/12/09 03:10:08;;;;;;;47.83;14.98;;;;;;;1.84;100.00;97547.72;5067465;28;20059;-85
2020/12/09 03:12:34;;;;;;;46.75;14.98;;;;;;;1.83;100.00;97545.13;5077735;28;20032;-85
2020/12/09 03:15:00;;;;;;;40.97;14.90;;;;;;;1.85;100.00;97551.19;5084880;28;20658;-85
2020/12/09 03:17:25;;;;;;;50.72;16.60;;;;;;;1.81;100.00;97549.56;5088295;28;20038;-85
2020/12/09 03:19:51;;;;;;;67.60;15.13;;;;;;;1.76;100.00;97552.31;5089063;28;20069;-85
2020/12/09 03:22:17;;;;;;;31.33;11.63;;;;;;;1.82;100.00;97546.88;5088265;28;20043;-86
2020/12/09 03:24:42;;;;;;;40.75;13.20;;;;;;;1.84;100.00;97538.94;5086779;28;20027;-86
2020/12/09 03:27:08;;;;;;;36.58;13.73;;;;;;;1.80;100.00;97547.84;5088673;28;20078;-86
2020/12/09 03:29:34;;;;;;;33.35;13.23;;;;;;;1.76;100.00;97554.09;5088502;28;20034;-85
2020/12/09 03:31:59;;;;;;;36.58;13.30;;;;;;;1.70;100.00;97549.84;5088672;28;20024;-83
2020/12/09 03:34:25;;;;;;;45.80;12.70;;;;;;;1.70;100.00;97541.06;5079201;28;20068;-83
2020/12/09 03:36:50;;;;;;;53.85;23.27;;;;;;;1.72;100.00;97534.88;5090555;28;20028;-84
2020/12/09 03:39:16;;;;;;;34.25;13.65;;;;;;;1.73;100.00;97541.00;5075181;28;20043;-85
2020/12/09 03:41:41;;;;;;;35.15;13.45;;;;;;;1.79;100.00;97536.41;5106549;28;20020;-86
2020/12/09 03:44:07;;;;;;;67.40;17.98;;;;;;;1.76;100.00;97525.97;5082714;28;20017;-85
2020/12/09 03:46:33;;;;;;;48.13;15.68;;;;;;;1.83;100.00;97524.03;5070456;28;20035;-84
2020/12/09 03:48:58;;;;;;;61.53;16.15;;;;;;;1.85;100.00;97524.84;5075728;28;20146;-85
2020/12/09 03:51:24;;;;;;;42.28;14.70;;;;;;;1.86;100.00;97529.22;5068458;28;20029;-85
2020/12/09 03:53:49;;;;;;;35.00;11.70;;;;;;;1.76;100.00;97533.00;5104474;28;20034;-86
2020/12/09 03:56:15;;;;;;;38.47;11.75;;;;;;;1.78;100.00;97533.84;5072798;28;20024;-86
2020/12/09 03:58:40;;;;;;;37.15;12.98;;;;;;;1.80;100.00;97547.84;5075494;28;20036;-86
2020/12/09 04:01:06;;;;;;;35.28;12.40;;;;;;;1.79;100.00;97546.97;5066867;28;20016;-85
2020/12/09 04:03:32;;;;;;;43.67;12.80;;;;;;;1.79;100.00;97541.69;5068795;28;20028;-84
2020/12/09 04:05:58;;;;;;;44.25;15.07;;;;;;;1.76;100.00;97538.28;5103035;28;20016;-86
2020/12/09 04:08:23;;;;;;;48.53;17.63;;;;;;;1.85;100.00;97535.38;5068548;28;20032;-85
2020/12/09 04:10:49;;;;;;;41.83;14.98;;;;;;;1.92;100.00;97547.50;5086264;28;20483;-86
2020/12/09 04:13:15;;;;;;;42.40;15.13;;;;;;;1.92;100.00;97543.09;5079622;28;20053;-85
2020/12/09 04:15:40;;;;;;;46.72;14.15;;;;;;;1.96;100.00;97542.09;5066388;28;20032;-84
2020/12/09 04:18:06;;;;;;;36.15;13.75;;;;;;;1.95;100.00;97531.59;5076874;28;20115;-84
2020/12/09 04:20:33;;;;;;;45.83;14.73;;;;;;;1.93;100.00;97526.38;5085354;28;20039;-84
2020/12/09 04:22:58;;;;;;;47.80;16.13;;;;;;;1.91;100.00;97530.81;5077758;28;20024;-86
2020/12/09 04:25:24;;;;;;;46.88;17.13;;;;;;;1.95;100.00;97529.81;5084119;28;20034;-85
2020/12/09 04:27:49;;;;;;;47.42;14.65;;;;;;;1.96;100.00;97533.31;5065252;28;20495;-85
2020/12/09 04:30:15;;;;;;;72.38;24.15;;;;;;;1.92;100.00;97529.91;5095910;28;20032;-85
2020/12/09 04:32:41;;;;;;;43.65;17.17;;;;;;;1.96;100.00;97535.97;5100624;28;20063;-85
2020/12/09 04:35:07;;;;;;;60.58;20.45;;;;;;;1.92;100.00;97527.25;5077345;28;20052;-85
2020/12/09 04:37:33;;;;;;;36.97;15.95;;;;;;;1.85;100.00;97525.69;5094176;28;20042;-86
2020/12/09 04:39:59;;;;;;;42.70;15.00;;;;;;;1.82;100.00;97524.91;5041027;28;20028;-86
2020/12/09 04:42:25;;;;;;;41.65;14.70;;;;;;;1.82;100.00;97512.59;5071477;28;20027;-84
2020/12/09 04:44:52;;;;;;;42.33;14.95;;;;;;;1.79;100.00;97525.00;5070498;28;20032;-86
2020/12/09 04:47:28;;;;;;;46.50;19.42;;;;;;;1.79;100.00;97519.72;5077419;28;20027;-86
2020/12/09 04:50:04;;;;;;;47.25;19.17;;;;;;;1.78;100.00;97524.16;5098700;28;20020;-85
2020/12/09 04:52:36;;;;;;;50.03;20.15;;;;;;;1.74;100.00;97526.91;5100517;28;20141;-85
2020/12/09 04:55:10;;;;;;;47.80;19.60;;;;;;;1.78;100.00;97516.25;5083355;28;20051;-85
2020/12/09 04:57:54;;;;;;;51.10;18.08;;;;;;;1.87;100.00;97523.03;5083422;28;20035;-86
2020/12/09 05:00:20;;;;;;;48.33;17.85;;;;;;;1.90;100.00;97517.69;5103234;28;20400;-84
2020/12/09 05:02:51;;;;;;;45.85;16.33;;;;;;;1.81;100.00;97507.38;5087264;28;20027;-85
2020/12/09 05:05:22;;;;;;;44.17;14.93;;;;;;;1.76;100.00;97509.28;5087060;28;20019;-85
2020/12/09 05:07:53;;;;;;;44.08;17.38;;;;;;;1.96;100.00;97512.22;5086646;28;20032;-85
2020/12/09 05:10:23;;;;;;;54.20;18.40;;;;;;;1.83;100.00;97510.84;5086953;28;20028;-86
2020/12/09 05:12:51;;;;;;;52.17;16.10;;;;;;;1.63;100.00;97509.63;5084818;28;20133;-84
2020/12/09 05:15:20;;;;;;;51.35;16.75;;;;;;;1.65;100.00;97496.41;5069532;28;20033;-86
2020/12/09 05:18:06;;;;;;;47.45;20.75;;;;;;;1.75;100.00;97486.47;5071121;28;20028;-84
2020/12/09 05:20:37;;;;;;;69.68;25.02;;;;;;;1.73;100.00;97481.22;5080777;28;20032;-85
2020/12/09 05:23:04;;;;;;;69.15;26.48;;;;;;;1.66;100.00;97484.09;5073851;28;20036;-84
2020/12/09 05:25:34;;;;;;;104.38;32.50;;;;;;;1.68;100.00;97479.63;5064380;28;20036;-85
2020/12/09 05:28:00;;;;;;;56.17;22.98;;;;;;;1.77;100.00;97484.66;5066443;28;20020;-84
2020/12/09 05:30:40;;;;;;;55.20;23.13;;;;;;;1.83;100.00;97472.16;5071254;28;20024;-85
2020/12/09 05:33:07;;;;;;;53.33;21.95;;;;;;;1.95;100.00;97474.44;5082051;28;20052;-76
2020/12/09 05:35:32;;;;;;;48.20;18.60;;;;;;;1.85;100.00;97457.16;5083715;28;20036;-84
2020/12/09 05:38:14;;;;;;;58.25;25.10;;;;;;;1.87;100.00;97457.13;5057312;28;20032;-86
2020/12/09 05:41:12;;;;;;;66.57;26.52;;;;;;;1.83;100.00;97471.28;5075976;28;20035;-90
2020/12/09 05:43:46;;;;;;;59.05;24.77;;;;;;;1.73;100.00;97454.00;5016916;28;20094;-84
2020/12/09 05:46:12;;;;;;;47.60;19.45;;;;;;;1.79;100.00;97470.50;5057229;28;20021;-85
2020/12/09 05:48:38;;;;;;;44.33;17.10;;;;;;;1.81;100.00;97481.03;5075020;28;20035;-85
2020/12/09 05:51:04;;;;;;;49.95;17.83;;;;;;;1.96;100.00;97485.84;5057742;28;20040;-84
2020/12/09 05:53:32;;;;;;;48.15;19.67;;;;;;;1.88;100.00;97487.81;5083134;28;20377;-85
2020/12/09 05:56:17;;;;;;;49.65;18.05;;;;;;;2.02;100.00;97501.50;5059748;28;20094;-84
2020/12/09 05:58:47;;;;;;;43.88;16.13;;;;;;;1.90;100.00;97486.91;5070450;28;20110;-83
2020/12/09 06:01:20;;;;;;;47.65;16.35;;;;;;;1.82;100.00;97485.38;5068594;28;20016;-84
2020/12/09 06:03:55;;;;;;;41.53;16.38;;;;;;;1.84;100.00;97487.06;5072539;28;20055;-84
2020/12/09 06:06:21;;;;;;;69.38;19.75;;;;;;;1.85;100.00;97482.63;5063451;28;20022;-84
2020/12/09 06:08:50;;;;;;;72.40;25.67;;;;;;;1.82;100.00;97488.00;5079264;28;20059;-84
2020/12/09 06:11:20;;;;;;;64.03;27.00;;;;;;;1.92;100.00;97498.25;5092282;28;20098;-84
2020/12/09 06:13:46;;;;;;;60.92;23.17;;;;;;;1.96;100.00;97486.72;5056586;28;20029;-84
2020/12/09 06:16:12;;;;;;;81.15;28.60;;;;;;;2.05;100.00;97481.19;5061089;28;20035;-85
2020/12/09 06:18:44;;;;;;;54.85;25.50;;;;;;;2.13;100.00;97488.84;5066065;28;20479;-84
2020/12/09 06:21:10;;;;;;;62.53;23.65;;;;;;;2.09;100.00;97479.31;5056901;28;20017;-84
2020/12/09 06:23:35;;;;;;;78.88;30.98;;;;;;;2.06;100.00;97487.31;5070401;28;20107;-83
2020/12/09 06:26:03;;;;;;;70.47;29.63;;;;;;;2.09;100.00;97503.06;5080196;28;20047;-83
2020/12/09 06:28:30;;;;;;;61.78;23.65;;;;;;;1.92;100.00;97489.47;5070820;28;20029;-83
2020/12/09 06:30:58;;;;;;;61.55;26.73;;;;;;;1.90;100.00;97481.63;5098953;28;20541;-83
2020/12/09 06:33:38;;;;;;;68.97;27.35;;;;;;;2.06;100.00;97489.97;5071649;28;20060;-83
2020/12/09 06:36:16;;;;;;;82.28;33.15;;;;;;;1.82;100.00;97474.81;5078616;28;20028;-82
2020/12/09 06:39:08;;;;;;;71.22;30.85;;;;;;;1.78;100.00;97486.38;5063872;28;20118;-83
2020/12/09 06:41:56;;;;;;;73.50;25.98;;;;;;;1.74;100.00;97479.47;5083023;28;20032;-84
2020/12/09 06:44:28;;;;;;;76.30;30.75;;;;;;;1.91;100.00;97493.00;5091943;28;20447;-83
2020/12/09 06:46:54;;;;;;;69.93;28.77;;;;;;;1.83;100.00;97460.75;5071482;28;20492;-84
2020/12/09 06:49:46;;;;;;;82.60;28.20;;;;;;;2.03;100.00;97493.53;5064135;28;20278;-83
2020/12/09 06:52:12;;;;;;;60.80;26.75;;;;;;;2.09;100.00;97495.16;5060410;28;20489;-84
2020/12/09 06:54:41;;;;;;;93.32;33.25;;;;;;;2.06;100.00;97500.50;5085863;28;20056;-85
2020/12/09 06:57:18;;;;;;;62.17;26.92;;;;;;;2.13;100.00;97488.84;5063935;28;20033;-83
2020/12/09 06:59:48;;;;;;;66.50;25.45;;;;;;;2.22;100.00;97487.69;5068964;28;20376;-84
2020/12/09 07:02:27;;;;;;;42.83;17.38;;;;;;;2.23;100.00;97498.22;5082591;28;20032;-84
2020/12/09 07:04:53;;;;;;;44.92;20.55;;;;;;;2.27;100.00;97469.97;5070070;28;20546;-84
2020/12/09 07:07:31;;;;;;;50.03;21.90;;;;;;;2.21;100.00;97481.59;5096821;28;20028;-82
2020/12/09 07:09:58;;;;;;;40.55;18.50;;;;;;;2.16;100.00;97480.84;5054724;28;20036;-84
2020/12/09 07:12:24;;;;;;;49.83;22.73;;;;;;;2.18;100.00;97481.69;5070531;28;20027;-85
2020/12/09 07:14:52;;;;;;;34.28;14.85;;;;;;;2.10;100.00;97483.66;5081928;28;20028;-83
2020/12/09 07:17:18;;;;;;;47.28;19.35;;;;;;;2.08;100.00;97477.59;5092275;28;20032;-84
2020/12/09 07:19:44;;;;;;;46.15;21.73;;;;;;;2.13;100.00;97476.53;5080717;28;20467;-83
2020/12/09 07:22:24;;;;;;;47.33;22.23;;;;;;;1.99;100.00;97484.00;5064540;28;20033;-83
2020/12/09 07:24:50;;;;;;;51.25;22.98;;;;;;;2.08;100.00;97481.09;5069390;28;20105;-85
2020/12/09 07:27:18;;;;;;;61.10;28.65;;;;;;;2.02;100.00;97488.31;5074267;28;20036;-85
2020/12/09 07:29:45;;;;;;;53.45;25.50;;;;;;;1.93;100.00;97475.41;5078325;28;20393;-86
2020/12/09 07:32:10;;;;;;;59.05;26.55;;;;;;;2.07;100.00;97475.84;5075080;28;20032;-85
2020/12/09 07:34:50;;;;;;;56.75;26.48;;;;;;;2.16;100.00;97488.75;5066096;28;20058;-84
2020/12/09 07:37:17;;;;;;;58.65;25.92;;;;;;;2.19;100.00;97483.38;5068072;28;20036;-83
2020/12/09 07:39:43;;;;;;;47.97;22.67;;;;;;;2.23;100.00;97495.59;5066601;28;20150;-83
2020/12/09 07:42:12;;;;;;;56.83;25.77;;;;;;;2.18;100.00;97497.50;5066914;28;20020;-84
2020/12/09 07:44:42;;;;;;;61.47;27.02;;;;;;;2.24;100.00;97491.19;5063449;28;20052;-83
2020/12/09 07:47:09;;;;;;;88.63;40.45;;;;;;;2.35;100.00;97484.66;5064148;28;20115;-84
2020/12/09 07:50:07;;;;;;;195.57;82.05;;;;;;;2.21;100.00;97459.63;5061833;28;20033;-84
2020/12/09 07:52:37;;;;;;;89.60;42.63;;;;;;;2.12;100.00;97489.78;5064794;28;20453;-85
2020/12/09 07:55:13;;;;;;;90.00;44.58;;;;;;;2.12;100.00;97489.78;5067475;28;20123;-85
2020/12/09 07:57:40;;;;;;;83.32;38.25;;;;;;;2.12;100.00;97502.97;5071430;28;20034;-85
2020/12/09 08:00:17;;;;;;;62.38;28.45;;;;;;;2.29;100.00;97495.41;5060396;28;20036;-85
2020/12/09 08:02:44;;;;;;;52.13;23.00;;;;;;;2.21;100.00;97492.16;5074129;28;20020;-88
2020/12/09 08:05:15;;;;;;;56.95;27.17;;;;;;;2.31;100.00;97509.41;5080453;28;20056;-84
2020/12/09 08:07:54;;;;;;;51.65;21.92;;;;;;;2.20;100.00;97516.78;5068211;28;20448;-83
2020/12/09 08:10:44;;;;;;;57.88;24.65;;;;;;;2.25;100.00;97517.50;5069817;28;20028;-83
2020/12/09 08:13:15;;;;;;;48.05;22.52;;;;;;;2.25;100.00;97511.34;5040013;28;20044;-84
2020/12/09 08:15:43;;;;;;;38.07;18.47;;;;;;;2.18;100.00;97503.63;5072634;28;20028;-81
2020/12/09 08:18:20;;;;;;;45.40;20.42;;;;;;;2.25;100.00;97506.94;5067268;28;20285;-84
2020/12/09 08:20:47;;;;;;;46.30;20.45;;;;;;;2.34;100.00;97509.31;5062102;28;20029;-85
2020/12/09 08:23:13;;;;;;;48.67;20.20;;;;;;;2.28;100.00;97513.94;5078932;28;20411;-84
2020/12/09 08:25:49;;;;;;;47.85;20.65;;;;;;;2.31;100.00;97514.69;5077982;28;20020;-83
2020/12/09 08:28:18;;;;;;;42.05;17.65;;;;;;;2.20;100.00;97511.50;5096211;28;20027;-82
2020/12/09 08:30:44;;;;;;;52.47;21.92;;;;;;;1.96;100.00;97515.72;5080591;28;20023;-83
2020/12/09 08:33:09;;;;;;;56.72;25.63;;;;;;;2.17;100.00;97522.16;5070740;28;20055;-84
2020/12/09 08:36:02;;;;;;;51.63;22.45;;;;;;;1.95;100.00;97515.75;5084622;28;20028;-83
2020/12/09 08:38:32;;;;;;;44.28;19.60;;;;;;;1.68;100.00;97508.63;5067122;28;20031;-84
2020/12/09 08:41:36;;;;;;;58.83;25.08;;;;;;;1.73;100.00;97483.00;5079516;28;20427;-84
2020/12/09 08:44:14;;;;;;;51.28;19.92;;;;;;;2.08;100.00;97533.84;5060972;28;20024;-83
2020/12/09 08:46:50;;;;;;;48.13;21.13;;;;;;;2.21;100.00;97536.13;5022629;28;20056;-84
2020/12/09 08:49:36;;;;;;;54.92;24.42;;;;;;;1.90;100.00;97475.47;5030280;28;20032;-81
2020/12/09 08:52:26;;;;;;;;;;;;;;;;;;;;;
2020/12/09 08:54:53;;;;;;;62.33;28.42;;;;;;;2.13;100.00;97507.31;5079009;28;20100;-83
2020/12/09 08:57:18;;;;;;;64.00;29.38;;;;;;;2.28;100.00;97530.59;5058014;28;20103;-82
2020/12/09 08:59:44;;;;;;;69.63;28.15;;;;;;;2.01;100.00;97532.28;5074548;28;20028;-84
2020/12/09 09:02:09;;;;;;;59.25;25.98;;;;;;;1.95;100.00;97526.31;5057633;28;20056;-82
2020/12/09 09:04:35;;;;;;;46.13;19.83;;;;;;;2.00;100.00;97513.88;5057453;28;20048;-83
2020/12/09 09:07:02;;;;;;;39.88;19.48;;;;;;;2.23;100.00;97521.97;5066006;28;20090;-83
2020/12/09 09:09:27;;;;;;;51.17;22.02;;;;;;;2.26;100.00;97519.25;5070749;28;20032;-85
2020/12/09 09:11:53;;;;;;;47.70;22.10;;;;;;;2.36;100.00;97518.06;5085228;28;20043;-83
2020/12/09 09:14:19;;;;;;;52.28;24.35;;;;;;;2.37;100.00;97506.56;5094439;28;20217;-84
2020/12/09 09:16:44;;;;;;;43.00;20.45;;;;;;;2.37;100.00;97509.22;5069540;28;20032;-84
2020/12/09 09:19:10;;;;;;;56.85;24.92;;;;;;;2.29;100.00;97505.09;5056302;28;20028;-83
2020/12/09 09:21:37;;;;;;;40.33;20.83;;;;;;;2.32;100.00;97497.06;5060287;28;20028;-83
2020/12/09 09:24:03;;;;;;;91.78;37.95;;;;;;;2.40;100.00;97506.47;5080807;28;20395;-83
2020/12/09 09:26:33;;;;;;;44.70;21.90;;;;;;;2.32;100.00;97511.13;5067387;28;20058;-83
2020/12/09 09:28:58;;;;;;;51.45;24.15;;;;;;;2.25;100.00;97504.31;5087974;28;20023;-84
2020/12/09 09:31:24;;;;;;;50.47;23.45;;;;;;;2.33;100.00;97491.78;5067428;28;20046;-84
2020/12/09 09:33:50;;;;;;;50.75;23.02;;;;;;;2.39;100.00;97481.03;5060073;28;20048;-83
2020/12/09 09:36:15;;;;;;;54.65;24.85;;;;;;;2.37;100.00;97482.81;5065483;28;20034;-83
2020/12/09 09:38:41;;;;;;;57.60;25.45;;;;;;;2.55;100.00;97479.63;5077307;28;20509;-83
2020/12/09 09:41:06;;;;;;;59.00;26.15;;;;;;;2.42;100.00;97483.56;5076309;28;20115;-83
2020/12/09 09:43:32;;;;;;;39.15;18.30;;;;;;;2.35;100.00;97462.69;5078488;28;20028;-83
2020/12/09 09:46:00;;;;;;;39.72;19.73;;;;;;;2.29;100.00;97462.88;5077626;28;20028;-83
2020/12/09 09:48:25;;;;;;;34.92;17.77;;;;;;;2.31;100.00;97469.81;5081703;28;20036;-84
2020/12/09 09:50:51;;;;;;;37.25;18.60;;;;;;;2.43;100.00;97456.25;5077721;28;20125;-83
2020/12/09 09:53:17;;;;;;;42.30;19.77;;;;;;;2.47;100.00;97442.03;5077763;28;20028;-84
2020/12/09 09:55:42;;;;;;;49.20;25.02;;;;;;;2.49;100.00;97440.22;5094325;28;20107;-84
2020/12/09 09:58:08;;;;;;;46.83;23.08;;;;;;;2.58;100.00;97445.22;5094634;28;20051;-84
2020/12/09 10:00:34;;;;;;;40.97;20.90;;;;;;;2.47;100.00;97446.47;5087057;28;20029;-83
2020/12/09 10:02:59;;;;;;;31.77;16.60;;;;;;;2.49;100.00;97439.38;5083742;28;20032;-84
2020/12/09 10:05:25;;;;;;;38.67;16.48;;;;;;;2.70;100.00;97436.03;5072024;28;20040;-85
2020/12/09 10:07:51;;;;;;;41.08;19.90;;;;;;;2.62;100.00;97425.72;5079847;28;20112;-84
2020/12/09 10:10:16;;;;;;;51.47;22.48;;;;;;;2.67;100.00;97413.25;5087551;28;20059;-83
2020/12/09 10:12:42;;;;;;;65.10;27.25;;;;;;;2.83;99.55;97415.38;5078680;28;20032;-84
2020/12/09 10:15:08;;;;;;;31.67;15.20;;;;;;;2.90;99.68;97414.22;5093480;28;20074;-84
2020/12/09 10:17:33;;;;;;;30.90;13.88;;;;;;;2.93;98.90;97411.47;5090764;28;20031;-86
2020/12/09 10:19:59;;;;;;;31.75;16.35;;;;;;;2.75;99.28;97402.41;5081830;28;20025;-84
2020/12/09 10:22:26;;;;;;;30.48;14.40;;;;;;;2.73;99.59;97398.97;5088970;28;20031;-84
2020/12/09 10:24:53;;;;;;;25.75;12.60;;;;;;;2.85;98.80;97402.97;5083264;28;20062;-85
2020/12/09 10:27:18;;;;;;;24.33;12.13;;;;;;;2.44;98.57;97396.41;5062348;28;20453;-83
2020/12/09 10:29:44;;;;;;;30.15;13.80;;;;;;;2.31;99.19;97408.28;5071629;28;20023;-82
2020/12/09 10:32:09;;;;;;;35.05;14.80;;;;;;;2.44;100.00;97402.56;5075516;28;20031;-82
2020/12/09 10:34:38;;;;;;;41.08;18.00;;;;;;;2.39;100.00;97409.78;5088860;28;20071;-83
2020/12/09 10:37:04;;;;;;;41.50;17.85;;;;;;;2.64;100.00;97402.78;5088349;28;20526;-82
2020/12/09 10:39:30;;;;;;;48.17;18.95;;;;;;;2.83;100.00;97396.88;5091234;28;20441;-83
2020/12/09 10:41:56;;;;;;;34.78;15.48;;;;;;;2.88;100.00;97392.31;5081804;28;20038;-82
2020/12/09 10:44:21;;;;;;;32.80;14.25;;;;;;;2.77;99.74;97386.53;5074297;28;20036;-81
2020/12/09 10:46:47;;;;;;;31.73;15.60;;;;;;;2.83;99.22;97386.31;5076100;28;20025;-82
2020/12/09 10:49:17;;;;;;;27.27;14.07;;;;;;;2.68;98.22;97372.72;5074627;28;20480;-83
2020/12/09 10:51:45;;;;;;;34.70;17.55;;;;;;;2.69;98.80;97382.38;5074484;28;20050;-83
2020/12/09 10:54:11;;;;;;;33.05;15.32;;;;;;;2.73;99.12;97386.63;5090413;28;20202;-83
2020/12/09 10:56:37;;;;;;;32.72;15.68;;;;;;;2.39;98.83;97380.75;5074191;28;20044;-81
2020/12/09 10:59:03;;;;;;;34.60;16.90;;;;;;;2.13;100.00;97388.59;5073488;28;20059;-81
2020/12/09 11:01:30;;;;;;;31.83;14.15;;;;;;;2.09;100.00;97376.44;5073855;28;20038;-80
2020/12/09 11:03:56;;;;;;;33.75;16.48;;;;;;;2.28;100.00;97368.81;5077551;28;20034;-83
2020/12/09 11:06:33;;;;;;;33.35;14.77;;;;;;;2.50;100.00;97369.81;5075605;28;20028;-82
2020/12/09 11:09:00;;;;;;;40.55;18.83;;;;;;;2.59;99.88;97380.94;5073097;28;20430;-82
2020/12/09 11:11:26;;;;;;;30.25;15.30;;;;;;;2.71;99.77;97383.16;5081239;28;20031;-82
2020/12/09 11:13:52;;;;;;;37.47;17.42;;;;;;;2.87;98.90;97380.00;5062042;28;20064;-82
2020/12/09 11:16:18;;;;;;;56.08;26.27;;;;;;;2.92;98.95;97378.09;5080866;28;20047;-81
2020/12/09 11:18:44;;;;;;;65.80;36.30;;;;;;;2.96;99.76;97374.41;5092282;28;20031;-83
2020/12/09 11:21:15;;;;;;;32.10;13.70;;;;;;;2.97;98.50;97378.78;5059825;28;20025;-83
2020/12/09 11:23:41;;;;;;;34.88;15.43;;;;;;;2.86;98.15;97370.38;5065250;28;20089;-83